Time;durP1;ratioP1;P1;durP2;ratioP2;P2;SDS_P1;SDS_P2;PMS_P1;PMS_P2;Temp;Humidity;BMP_temperature;BMP_pressure;BME280_temperature;BME280_humidity;BME280_pressure;Samples;Min_cycle;Max_cycle;Signal;HPM_P1;HPM_P2
2023/01/27 00:04:28;;;;;;;13.48;6.90;;;;;;;;;;20832722;28;20100;-60
2023/01/27 00:14:49;;;;;;;14.82;5.85;;;;;;;;;;20833165;28;20445;-61
2023/01/27 00:25:00;;;;;;;18.20;8.75;;;;;;;;;;20832409;28;20470;-61
2023/01/27 00:35:04;;;;;;;12.02;5.90;;;;;;;;;;20832695;28;20449;-60
2023/01/27 00:45:51;;;;;;;13.48;5.47;;;;;;;;;;20830647;28;20085;-60
2023/01/27 00:55:33;;;;;;;12.13;4.07;;;;;;;;;;20829937;28;20053;-60
2023/01/27 01:05:36;;;;;;;14.43;6.38;;;;;;;;;;20831067;28;20057;-59
2023/01/27 01:15:39;;;;;;;11.07;4.90;;;;;;;;;;20837615;28;20076;-60
2023/01/27 01:25:42;;;;;;;13.05;4.72;;;;;;;;;;20845812;28;20045;-60
2023/01/27 01:35:45;;;;;;;9.68;4.40;;;;;;;;;;20845967;28;20481;-60
2023/01/27 01:45:50;;;;;;;10.93;4.50;;;;;;;;;;20845405;28;20528;-60
2023/01/27 01:55:53;;;;;;;5.93;3.00;;;;;;;;;;20844213;28;20158;-62
2023/01/27 02:05:56;;;;;;;4.13;2.17;;;;;;;;;;20843060;28;20053;-59
2023/01/27 02:15:58;;;;;;;9.07;3.10;;;;;;;;;;20841894;28;20085;-59
2023/01/27 02:26:08;;;;;;;4.63;2.30;;;;;;;;;;20840804;28;20045;-60
2023/01/27 02:36:15;;;;;;;6.03;2.75;;;;;;;;;;20841191;28;20053;-61
2023/01/27 02:46:18;;;;;;;4.20;2.20;;;;;;;;;;20838011;28;20103;-60
2023/01/27 02:56:30;;;;;;;4.93;2.50;;;;;;;;;;20839627;28;20417;-60
2023/01/27 03:06:40;;;;;;;;;;;;;;;;;;20839474;28;20513;-60
2023/01/27 03:27:18;;;;;;;3.67;2.28;;;;;;;;;;20836699;28;20041;-60
2023/01/27 03:48:09;;;;;;;5.53;2.33;;;;;;;;;;20835057;28;20045;-59
2023/01/27 03:58:20;;;;;;;5.65;2.70;;;;;;;;;;20834689;28;20056;-60
2023/01/27 04:08:27;;;;;;;6.03;2.47;;;;;;;;;;20832503;28;20041;-60
2023/01/27 04:18:34;;;;;;;9.55;2.72;;;;;;;;;;20833390;28;20141;-60
2023/01/27 04:28:37;;;;;;;4.93;2.42;;;;;;;;;;20832899;28;20050;-60
2023/01/27 04:38:45;;;;;;;4.35;2.20;;;;;;;;;;20832089;28;20358;-61
2023/01/27 04:49:01;;;;;;;5.88;2.30;;;;;;;;;;20830596;28;20076;-61
2023/01/27 04:59:06;;;;;;;3.63;2.05;;;;;;;;;;20831759;28;20382;-60
2023/01/27 05:09:10;;;;;;;6.85;2.20;;;;;;;;;;20830677;28;20053;-59
2023/01/27 05:19:12;;;;;;;2.95;1.88;;;;;;;;;;20830154;28;20099;-59
2023/01/27 05:29:15;;;;;;;2.50;1.50;;;;;;;;;;20829768;28;20136;-59
2023/01/27 05:39:17;;;;;;;2.92;1.65;;;;;;;;;;20829657;28;20489;-60
2023/01/27 05:49:19;;;;;;;3.80;1.58;;;;;;;;;;20828530;28;20049;-59
2023/01/27 05:59:20;;;;;;;3.88;2.08;;;;;;;;;;20829222;28;20076;-61
2023/01/27 06:09:22;;;;;;;4.05;2.00;;;;;;;;;;20842982;28;20045;-61
2023/01/27 06:19:24;;;;;;;6.03;2.22;;;;;;;;;;20842124;28;20053;-60
2023/01/27 06:29:26;;;;;;;8.25;3.45;;;;;;;;;;20840859;28;20045;-59
2023/01/27 06:39:27;;;;;;;9.05;2.75;;;;;;;;;;20841067;28;20045;-60
2023/01/27 06:49:29;;;;;;;4.78;2.30;;;;;;;;;;20839305;28;20096;-60
2023/01/27 06:59:31;;;;;;;5.90;2.63;;;;;;;;;;20839180;28;20111;-60
2023/01/27 07:09:33;;;;;;;10.45;2.70;;;;;;;;;;20837868;28;20049;-60
2023/01/27 07:19:36;;;;;;;7.47;3.05;;;;;;;;;;20836012;28;20045;-60
2023/01/27 07:29:38;;;;;;;9.02;2.83;;;;;;;;;;20836867;28;20410;-61
2023/01/27 07:39:40;;;;;;;9.55;2.45;;;;;;;;;;20835609;28;20041;-60
2023/01/27 07:49:42;;;;;;;5.38;2.15;;;;;;;;;;20835288;28;20497;-60
2023/01/27 07:59:43;;;;;;;7.75;2.95;;;;;;;;;;20833997;28;20085;-60
2023/01/27 08:09:45;;;;;;;8.02;2.75;;;;;;;;;;20833360;28;20049;-60
2023/01/27 08:19:49;;;;;;;10.05;2.80;;;;;;;;;;20833815;28;20508;-60
2023/01/27 08:29:53;;;;;;;8.40;3.00;;;;;;;;;;20832257;28;20053;-61
2023/01/27 08:39:54;;;;;;;8.73;3.45;;;;;;;;;;20831593;28;20083;-60
2023/01/27 08:49:56;;;;;;;7.32;3.50;;;;;;;;;;20830483;28;20574;-58
2023/01/27 08:59:58;;;;;;;9.10;3.53;;;;;;;;;;20830412;28;20481;-60
2023/01/27 09:10:00;;;;;;;16.83;5.82;;;;;;;;;;20830784;28;20501;-59
2023/01/27 09:20:03;;;;;;;11.70;3.80;;;;;;;;;;20830325;28;20046;-60
2023/01/27 09:30:05;;;;;;;15.27;5.00;;;;;;;;;;20829746;28;20131;-61
2023/01/27 09:40:12;;;;;;;18.15;6.70;;;;;;;;;;20841920;28;20486;-60
2023/01/27 09:50:36;;;;;;;14.18;5.47;;;;;;;;;;20844588;28;20484;-60
2023/01/27 10:00:40;;;;;;;7.55;3.08;;;;;;;;;;20843457;28;20049;-60
2023/01/27 10:10:46;;;;;;;1.50;0.50;;;;;;;;;;20842044;28;20049;-62
2023/01/27 10:20:59;;;;;;;1.83;0.40;;;;;;;;;;20842599;28;20087;-59
2023/01/27 10:31:10;;;;;;;0.28;0.10;;;;;;;;;;20841324;28;20056;-62
2023/01/27 10:41:21;;;;;;;1.85;0.10;;;;;;;;;;20840790;28;20045;-63
2023/01/27 10:51:35;;;;;;;4.07;0.20;;;;;;;;;;20837622;28;20070;-70
2023/01/27 11:01:46;;;;;;;5.20;0.30;;;;;;;;;;20839387;28;20056;-65
2023/01/27 11:11:48;;;;;;;1.13;0.20;;;;;;;;;;20776292;28;20049;-67
2023/01/27 11:21:51;;;;;;;2.30;0.20;;;;;;;;;;20784505;28;20045;-65
2023/01/27 11:31:53;;;;;;;2.22;0.20;;;;;;;;;;20791757;28;20049;-60
2023/01/27 11:41:55;;;;;;;0.40;0.30;;;;;;;;;;20819667;28;20468;-60
2023/01/27 11:52:08;;;;;;;2.80;0.32;;;;;;;;;;20830512;28;20164;-63
2023/01/27 12:02:28;;;;;;;1.00;0.30;;;;;;;;;;20814916;28;20097;-65
2023/01/27 12:12:29;;;;;;;0.73;0.20;;;;;;;;;;20786293;28;20428;-64
2023/01/27 12:22:38;;;;;;;0.93;0.70;;;;;;;;;;20772367;28;20130;-73
2023/01/27 12:32:41;;;;;;;0.95;0.22;;;;;;;;;;20788325;28;20125;-61
2023/01/27 12:42:47;;;;;;;1.65;0.30;;;;;;;;;;20749503;28;20069;-61
2023/01/27 12:52:52;;;;;;;2.53;0.22;;;;;;;;;;20785348;28;20144;-66
2023/01/27 13:02:59;;;;;;;0.52;0.10;;;;;;;;;;20822982;28;20054;-67
2023/01/27 13:13:02;;;;;;;1.75;0.10;;;;;;;;;;20838931;28;20053;-60
2023/01/27 13:23:04;;;;;;;1.17;0.40;;;;;;;;;;20846020;28;20046;-60
2023/01/27 13:33:25;;;;;;;1.10;0.30;;;;;;;;;;20845587;28;20478;-65
2023/01/27 13:43:40;;;;;;;0.50;0.20;;;;;;;;;;20845472;28;20140;-63
2023/01/27 13:53:43;;;;;;;1.73;0.40;;;;;;;;;;20843752;28;20378;-60
2023/01/27 14:03:44;;;;;;;1.05;0.20;;;;;;;;;;20842330;28;20064;-61
2023/01/27 14:14:00;;;;;;;0.70;0.30;;;;;;;;;;20841777;28;20137;-60
2023/01/27 14:24:02;;;;;;;2.22;0.20;;;;;;;;;;20841310;28;20053;-64
2023/01/27 14:34:07;;;;;;;1.65;0.35;;;;;;;;;;20842371;28;20089;-66
2023/01/27 14:44:32;;;;;;;1.85;0.40;;;;;;;;;;20840597;28;20188;-65
2023/01/27 14:54:50;;;;;;;0.77;0.20;;;;;;;;;;20834197;28;20096;-63
2023/01/27 15:05:03;;;;;;;2.92;0.30;;;;;;;;;;20839665;28;20548;-68
2023/01/27 15:15:25;;;;;;;0.60;0.20;;;;;;;;;;20837951;28;20056;-68
2023/01/27 15:25:32;;;;;;;2.97;0.25;;;;;;;;;;20836924;28;20055;-65
2023/01/27 15:35:35;;;;;;;0.55;0.10;;;;;;;;;;20836250;28;20148;-63
2023/01/27 15:45:41;;;;;;;0.40;0.17;;;;;;;;;;20835948;28;20065;-63
2023/01/27 15:55:53;;;;;;;0.82;0.20;;;;;;;;;;20834778;28;20057;-64
2023/01/27 16:06:21;;;;;;;1.98;0.10;;;;;;;;;;20834254;28;20053;-64
2023/01/27 16:16:32;;;;;;;1.97;0.30;;;;;;;;;;20775215;28;20536;-62
2023/01/27 16:26:42;;;;;;;1.50;0.20;;;;;;;;;;20775929;28;20175;-60
2023/01/27 16:37:23;;;;;;;4.38;0.45;;;;;;;;;;20810219;28;20448;-65
2023/01/27 16:47:46;;;;;;;1.33;0.30;;;;;;;;;;20821306;28;20053;-67
2023/01/27 16:57:47;;;;;;;1.08;0.10;;;;;;;;;;20830622;28;20117;-63
2023/01/27 17:08:08;;;;;;;0.63;0.20;;;;;;;;;;20824530;28;20081;-62
2023/01/27 17:18:10;;;;;;;2.28;0.40;;;;;;;;;;20826515;28;20076;-70
2023/01/27 17:28:17;;;;;;;0.98;0.38;;;;;;;;;;20828942;28;20092;-63
2023/01/27 17:38:22;;;;;;;0.95;0.35;;;;;;;;;;20822369;28;20128;-60
2023/01/27 17:48:25;;;;;;;2.08;0.40;;;;;;;;;;20820769;28;20064;-62
2023/01/27 17:58:27;;;;;;;2.40;0.22;;;;;;;;;;20832534;28;20063;-63
2023/01/27 18:08:33;;;;;;;3.50;0.47;;;;;;;;;;20833370;28;20045;-62
2023/01/27 18:18:36;;;;;;;2.05;0.40;;;;;;;;;;20843582;28;20069;-64
2023/01/27 18:28:38;;;;;;;5.15;1.83;;;;;;;;;;20828976;28;20052;-61
2023/01/27 18:38:45;;;;;;;3.28;0.52;;;;;;;;;;20844370;28;20455;-66
2023/01/27 18:48:47;;;;;;;1.83;0.45;;;;;;;;;;20840374;28;20489;-69
2023/01/27 18:58:49;;;;;;;3.28;0.60;;;;;;;;;;20840292;28;20136;-60
2023/01/27 19:08:51;;;;;;;1.73;0.40;;;;;;;;;;20836223;28;20063;-61
2023/01/27 19:18:55;;;;;;;1.60;0.52;;;;;;;;;;20837475;28;20117;-61
2023/01/27 19:28:57;;;;;;;3.22;0.60;;;;;;;;;;20836481;28;20053;-63
2023/01/27 19:39:12;;;;;;;1.52;0.40;;;;;;;;;;20837682;28;20499;-61
2023/01/27 19:49:18;;;;;;;1.58;0.45;;;;;;;;;;20835468;28;20397;-60
2023/01/27 19:59:20;;;;;;;1.48;0.50;;;;;;;;;;20835864;28;20092;-59
2023/01/27 20:09:21;;;;;;;2.90;1.13;;;;;;;;;;20834916;28;20049;-59
2023/01/27 20:19:24;;;;;;;2.20;0.85;;;;;;;;;;20833176;28;20465;-60
2023/01/27 20:29:26;;;;;;;1.30;0.57;;;;;;;;;;20833105;28;20049;-59
2023/01/27 20:39:30;;;;;;;2.05;0.75;;;;;;;;;;20832898;28;20052;-59
2023/01/27 20:49:34;;;;;;;3.08;0.63;;;;;;;;;;20831427;28;20061;-61
2023/01/27 20:59:36;;;;;;;1.40;0.65;;;;;;;;;;20832351;28;20370;-59
2023/01/27 21:09:38;;;;;;;2.60;0.60;;;;;;;;;;20831994;28;20072;-59
2023/01/27 21:19:40;;;;;;;0.75;0.40;;;;;;;;;;20828724;28;20474;-59
2023/01/27 21:29:42;;;;;;;2.38;0.73;;;;;;;;;;20832772;28;20057;-60
2023/01/27 21:39:44;;;;;;;0.70;0.40;;;;;;;;;;20846638;28;20049;-58
2023/01/27 21:49:59;;;;;;;4.32;1.27;;;;;;;;;;20844255;28;20089;-59
2023/01/27 22:00:01;;;;;;;2.50;0.85;;;;;;;;;;20843816;28;20099;-59
2023/01/27 22:10:05;;;;;;;1.33;0.65;;;;;;;;;;20844562;28;20482;-60
2023/01/27 22:20:07;;;;;;;1.23;0.40;;;;;;;;;;20842710;28;20054;-60
2023/01/27 22:30:13;;;;;;;2.72;1.25;;;;;;;;;;20841671;28;20144;-60
2023/01/27 22:40:15;;;;;;;1.85;0.70;;;;;;;;;;20842012;28;20054;-59
2023/01/27 22:50:18;;;;;;;3.45;0.50;;;;;;;;;;20839242;28;20061;-60
2023/01/27 23:00:21;;;;;;;0.85;0.40;;;;;;;;;;20840642;28;20096;-61
2023/01/27 23:10:23;;;;;;;0.82;0.20;;;;;;;;;;20839823;28;20077;-60
2023/01/27 23:20:26;;;;;;;2.28;0.30;;;;;;;;;;20839281;28;20457;-58
2023/01/27 23:30:29;;;;;;;1.50;0.40;;;;;;;;;;20837474;28;20136;-60
2023/01/27 23:40:31;;;;;;;1.65;0.38;;;;;;;;;;20836714;28;20510;-60
2023/01/27 23:50:38;;;;;;;1.77;0.50;;;;;;;;;;20835820;28;20049;-60
